首页
METAR-TAF:

METAR-TAF

机场 :

托雷翁, 墨西哥

纬度: 25-32N, 经度: 103-27W, 海拔: 1124米

当前天气观测

该预报发布于56分钟前的22:51 UTC
风速5节,风向
温度 32°C
湿度 28%
气压 1017 hPa
能見度: 16.1公里
散云层高于3000英尺, 塔状积云.
散云层高于10000英尺
多云层高于20000英尺

METAR: MMTC 152251Z 10005KT 10SM SCT030TCU SCT100 BKN200 32/11 A3003 RMK 8/272 CB W

时间: 18:47 (23:47 UTC)

预报

该预报发布于6小时和57分钟前的16:50 UTC
预报有效从15日的 18点(UTC)到 16日的 18点(UTC)
风速10节,风向
能見度: 10公里
散云层高于2000英尺
多云层高于10000英尺
成为
从 15日的 21点(UTC)到 15日的 22点(UTC)
风速15节,风向北转东北
几率 40%
从 16日的 00点(UTC)到 16日的 04点(UTC)
能見度: 9.7公里
多云层高于2000英尺
多云层高于10000英尺
小雨
从 16日的 0500点(UTC)
风速节,风向
能見度: 10公里
散云层高于2000英尺
多云层高于10000英尺
成为
从 16日的 17点(UTC)到 16日的 18点(UTC)
风速5节,风向东转东南

TAF: MMTC 151650Z 1518/1618 09010KT P6SM SCT020 BKN100 BECMG 1521/1522 02015KT PROB40 1600/1604 6SM -RA BKN020 BKN100 FM160500 00000KT P6SM SCT020 BKN100 BECMG 1617/1618 12005KT

超过4000个机场的气象观测和天气预报(METAR&TAF报告)。

可查询的气象台以黄色和红色小点在地图上表示。

将鼠标移到小点上方,可查看气象台名称。

然后点击查看天气观测和预报。

如需切换地图:点击带黑十字的绿色按钮放大地图;点击带横线的绿色按钮缩小地图;或者点击绿色箭头查看邻近地区的地图。


METAR-TAF: